Time;durP1;ratioP1;P1;durP2;ratioP2;P2;SDS_P1;SDS_P2;PMS_P1;PMS_P2;Temp;Humidity;BMP_temperature;BMP_pressure;BME280_temperature;BME280_humidity;BME280_pressure;Samples;Min_cycle;Max_cycle;Signal;HPM_P1;HPM_P2
2023/06/20 00:00:16;;;;;;;19.35;14.82;;;17.60;99.90;;;;;;5055765;28;20068;-74
2023/06/20 00:02:41;;;;;;;18.58;14.57;;;17.60;99.90;;;;;;5042257;28;20411;-74
2023/06/20 00:05:07;;;;;;;20.60;15.45;;;17.60;99.90;;;;;;5039133;28;20045;-74
2023/06/20 00:07:33;;;;;;;18.08;14.57;;;17.60;99.90;;;;;;5061227;28;20039;-74
2023/06/20 00:09:59;;;;;;;19.58;15.52;;;17.60;99.90;;;;;;5044575;28;20040;-73
2023/06/20 00:12:25;;;;;;;19.60;15.35;;;17.60;99.90;;;;;;5040481;28;20407;-73
2023/06/20 00:14:51;;;;;;;20.83;15.55;;;17.60;99.90;;;;;;5041646;28;20159;-73
2023/06/20 00:17:16;;;;;;;16.98;14.25;;;17.60;99.90;;;;;;5048733;28;20036;-74
2023/06/20 00:19:42;;;;;;;20.48;15.35;;;17.60;99.90;;;;;;5061284;28;20048;-73
2023/06/20 00:22:08;;;;;;;19.23;14.77;;;17.50;99.90;;;;;;5030863;28;20041;-73
2023/06/20 00:24:34;;;;;;;20.05;14.45;;;17.60;99.90;;;;;;5062353;28;20053;-74
2023/06/20 00:27:03;;;;;;;20.40;14.77;;;17.50;99.90;;;;;;5061857;28;20032;-74
2023/06/20 00:29:29;;;;;;;18.65;14.45;;;17.50;99.90;;;;;;5043108;28;20610;-73
2023/06/20 00:31:55;;;;;;;19.60;14.82;;;17.40;99.90;;;;;;5061056;28;20044;-73
2023/06/20 00:34:21;;;;;;;16.48;14.50;;;17.40;99.90;;;;;;5064644;28;21047;-73
2023/06/20 00:36:47;;;;;;;20.33;15.40;;;17.40;99.90;;;;;;5043349;28;20119;-74
2023/06/20 00:39:12;;;;;;;23.23;15.07;;;17.30;99.90;;;;;;5041762;28;20051;-74
2023/06/20 00:41:39;;;;;;;18.98;15.55;;;17.40;99.90;;;;;;5064026;28;20067;-75
2023/06/20 00:44:05;;;;;;;17.42;14.63;;;17.30;99.90;;;;;;5061285;28;20075;-73
2023/06/20 00:46:37;;;;;;;21.40;15.98;;;17.30;99.90;;;;;;5057215;28;20051;-73
2023/06/20 00:49:05;;;;;;;17.13;14.57;;;17.20;99.90;;;;;;5063725;28;20487;-74
2023/06/20 00:51:31;;;;;;;20.90;14.35;;;17.20;99.90;;;;;;5065733;28;20059;-74
2023/06/20 00:53:58;;;;;;;18.13;13.80;;;17.20;99.90;;;;;;5062642;28;20048;-74
2023/06/20 00:56:27;;;;;;;18.48;14.45;;;17.10;99.90;;;;;;5067850;28;20093;-73
2023/06/20 00:58:52;;;;;;;19.67;14.07;;;17.10;99.90;;;;;;5066755;28;20033;-73
2023/06/20 01:01:19;;;;;;;17.95;14.65;;;17.20;99.90;;;;;;5047264;28;20101;-74
2023/06/20 01:03:49;;;;;;;18.17;14.77;;;17.10;99.90;;;;;;5046756;28;20503;-73
2023/06/20 01:06:46;;;;;;;22.73;14.10;;;17.10;99.90;;;;;;5061381;28;20047;-74
2023/06/20 01:09:20;;;;;;;19.60;15.57;;;17.10;99.90;;;;;;5062143;28;20071;-73
2023/06/20 01:11:54;;;;;;;20.15;14.13;;;17.10;99.90;;;;;;5066491;28;20098;-74
2023/06/20 01:14:25;;;;;;;19.67;14.20;;;17.10;99.90;;;;;;5065475;28;20041;-74
2023/06/20 01:17:03;;;;;;;19.60;14.25;;;17.10;99.90;;;;;;5064851;28;20206;-73
2023/06/20 01:20:04;;;;;;;20.63;15.50;;;17.10;99.90;;;;;;5063955;28;20063;-73
2023/06/20 01:22:45;;;;;;;18.58;15.05;;;17.20;99.90;;;;;;5064146;28;20048;-74
2023/06/20 01:25:28;;;;;;;21.52;15.75;;;17.20;99.90;;;;;;5043305;28;20044;-74
2023/06/20 01:27:59;;;;;;;20.35;15.98;;;17.10;99.90;;;;;;5049466;28;20041;-73
2023/06/20 01:30:38;;;;;;;22.17;14.75;;;17.10;99.90;;;;;;5066117;28;20124;-74
2023/06/20 01:33:08;;;;;;;17.88;14.43;;;17.10;99.90;;;;;;5046681;28;20072;-73
2023/06/20 01:35:36;;;;;;;20.92;15.13;;;17.10;99.90;;;;;;5063298;28;20166;-74
2023/06/20 01:38:08;;;;;;;19.83;16.05;;;17.10;99.90;;;;;;5065351;28;20607;-73
2023/06/20 01:40:36;;;;;;;19.13;14.60;;;17.10;99.90;;;;;;5064253;28;20237;-73
2023/06/20 01:43:02;;;;;;;20.50;15.30;;;17.10;99.90;;;;;;5058377;28;20048;-73
2023/06/20 01:45:33;;;;;;;20.48;15.00;;;17.10;99.90;;;;;;5062193;28;20051;-74
2023/06/20 01:48:02;;;;;;;21.52;15.32;;;17.10;99.90;;;;;;5048180;28;20033;-73
2023/06/20 01:50:29;;;;;;;20.33;15.35;;;17.10;99.90;;;;;;5045272;28;20036;-73
2023/06/20 01:52:57;;;;;;;21.27;15.70;;;17.20;99.90;;;;;;5046708;28;20083;-73
2023/06/20 01:55:25;;;;;;;21.52;16.55;;;17.10;99.90;;;;;;5064687;28;20040;-73
2023/06/20 01:57:54;;;;;;;23.80;16.55;;;17.20;99.90;;;;;;5066417;28;20166;-74
2023/06/20 02:00:23;;;;;;;23.55;15.93;;;17.10;99.90;;;;;;5059995;28;20037;-73
2023/06/20 02:02:49;;;;;;;25.33;17.05;;;17.10;99.90;;;;;;5047317;28;20468;-73
2023/06/20 02:05:15;;;;;;;22.67;16.40;;;17.10;99.90;;;;;;5047840;28;20072;-73
2023/06/20 02:07:42;;;;;;;19.50;16.63;;;17.00;99.90;;;;;;5062348;28;20575;-73
2023/06/20 02:10:10;;;;;;;27.85;16.15;;;17.00;99.90;;;;;;5042896;28;20041;-72
2023/06/20 02:12:36;;;;;;;24.38;16.60;;;17.10;99.90;;;;;;5047759;28;20041;-75
2023/06/20 02:15:04;;;;;;;21.00;15.60;;;17.10;99.90;;;;;;5044091;28;20109;-74
2023/06/20 02:17:31;;;;;;;20.33;15.20;;;17.10;99.90;;;;;;5046788;28;20063;-74
2023/06/20 02:19:57;;;;;;;22.33;16.20;;;17.10;99.90;;;;;;5048867;28;20176;-73
2023/06/20 02:22:26;;;;;;;19.33;15.60;;;17.20;99.90;;;;;;5064059;28;20132;-74
2023/06/20 02:24:57;;;;;;;20.92;16.40;;;17.20;99.90;;;;;;5062044;28;20075;-73
2023/06/20 02:27:24;;;;;;;23.35;16.65;;;17.20;99.90;;;;;;5046467;28;20037;-73
2023/06/20 02:29:51;;;;;;;20.27;15.57;;;17.20;99.90;;;;;;5044930;28;20499;-73
2023/06/20 02:32:19;;;;;;;22.00;16.15;;;17.20;99.90;;;;;;5042874;28;20112;-74
2023/06/20 02:34:47;;;;;;;20.05;16.65;;;17.20;99.90;;;;;;5063893;28;20061;-73
2023/06/20 02:37:14;;;;;;;23.42;16.23;;;17.20;99.90;;;;;;5062619;28;20052;-74
2023/06/20 02:39:40;;;;;;;21.88;16.40;;;17.20;99.90;;;;;;5044580;28;20467;-74
2023/06/20 02:42:06;;;;;;;19.90;16.27;;;17.20;99.90;;;;;;5061299;28;20047;-74
2023/06/20 02:44:31;;;;;;;23.45;16.52;;;17.20;99.90;;;;;;5044396;28;20041;-74
2023/06/20 02:47:25;;;;;;;21.52;16.67;;;17.20;99.90;;;;;;5045715;28;20129;-75
2023/06/20 02:49:57;;;;;;;22.63;15.75;;;17.30;99.90;;;;;;5033326;28;20335;-74
2023/06/20 02:52:37;;;;;;;18.58;14.38;;;17.30;99.90;;;;;;5045730;28;20102;-73
2023/06/20 02:55:29;;;;;;;18.73;14.57;;;17.40;99.90;;;;;;5057178;28;20044;-74
2023/06/20 02:57:59;;;;;;;17.50;13.05;;;17.40;99.90;;;;;;5063182;28;20055;-74
2023/06/20 03:00:25;;;;;;;20.65;13.35;;;17.50;99.90;;;;;;5037871;28;20049;-75
2023/06/20 03:03:14;;;;;;;16.25;12.25;;;17.50;99.90;;;;;;5056030;28;20396;-75
2023/06/20 03:05:45;;;;;;;17.33;12.35;;;17.50;99.90;;;;;;5056489;28;20199;-75
2023/06/20 03:08:17;;;;;;;17.95;11.30;;;17.60;99.90;;;;;;5060681;28;20097;-75
2023/06/20 03:10:45;;;;;;;19.80;11.98;;;17.60;99.90;;;;;;5053045;28;20044;-75
2023/06/20 03:13:15;;;;;;;18.63;11.32;;;17.60;99.90;;;;;;5053412;28;20076;-75
2023/06/20 03:15:41;;;;;;;15.38;10.93;;;17.60;99.90;;;;;;5055541;28;20053;-74
2023/06/20 03:18:07;;;;;;;14.32;10.60;;;17.60;99.90;;;;;;5061303;28;20045;-74
2023/06/20 03:20:34;;;;;;;17.05;11.43;;;17.60;99.90;;;;;;5061645;28;20055;-74
2023/06/20 03:22:59;;;;;;;13.43;9.57;;;17.60;99.90;;;;;;5046238;28;20407;-73
2023/06/20 03:25:25;;;;;;;14.70;10.13;;;17.50;99.90;;;;;;5044145;28;20052;-74
2023/06/20 03:27:51;;;;;;;14.07;9.13;;;17.50;99.90;;;;;;5063711;28;20028;-73
2023/06/20 03:30:16;;;;;;;12.35;8.90;;;17.60;99.90;;;;;;5040719;28;20045;-74
2023/06/20 03:32:42;;;;;;;14.32;9.90;;;17.60;99.90;;;;;;5030500;28;20403;-74
2023/06/20 03:35:08;;;;;;;13.93;9.38;;;17.60;99.90;;;;;;5026037;28;20036;-73
2023/06/20 03:37:33;;;;;;;15.95;10.02;;;17.60;99.90;;;;;;5046084;28;20052;-74
2023/06/20 03:39:59;;;;;;;13.45;10.15;;;17.60;99.90;;;;;;5063468;28;20076;-74
2023/06/20 03:42:25;;;;;;;16.25;10.70;;;17.70;99.90;;;;;;5042765;28;20516;-74
2023/06/20 03:44:50;;;;;;;13.70;9.80;;;17.70;99.90;;;;;;5054325;28;20362;-74
2023/06/20 03:47:17;;;;;;;12.68;9.30;;;17.70;99.90;;;;;;5060306;28;20068;-74
2023/06/20 03:49:43;;;;;;;13.95;9.82;;;17.70;99.90;;;;;;5066152;28;20056;-74
2023/06/20 03:52:09;;;;;;;13.95;9.50;;;17.70;99.90;;;;;;5045932;28;20471;-74
2023/06/20 03:54:34;;;;;;;13.48;9.45;;;17.70;99.90;;;;;;5059784;28;20682;-74
2023/06/20 03:57:01;;;;;;;10.10;8.48;;;17.70;99.90;;;;;;5045646;28;20036;-74
2023/06/20 03:59:26;;;;;;;12.55;9.07;;;17.70;99.90;;;;;;5045529;28;20083;-74
2023/06/20 04:01:52;;;;;;;13.30;9.18;;;17.70;99.90;;;;;;5042801;28;20075;-74
2023/06/20 04:04:19;;;;;;;11.63;8.85;;;17.70;99.90;;;;;;5063646;28;20051;-74
2023/06/20 04:06:49;;;;;;;12.45;7.93;;;17.80;99.90;;;;;;5044811;28;20040;-74
2023/06/20 04:09:18;;;;;;;13.63;8.82;;;17.80;99.90;;;;;;5044426;28;20503;-74
2023/06/20 04:11:44;;;;;;;12.48;9.02;;;17.80;99.90;;;;;;5062916;28;20048;-74
2023/06/20 04:14:10;;;;;;;12.40;8.98;;;17.80;99.90;;;;;;5065202;28;21070;-74
2023/06/20 04:16:36;;;;;;;14.13;8.77;;;17.90;99.90;;;;;;5061834;28;20044;-74
2023/06/20 04:19:02;;;;;;;14.23;9.23;;;17.90;99.90;;;;;;5043387;28;20075;-72
2023/06/20 04:21:27;;;;;;;13.02;9.18;;;17.90;99.90;;;;;;5059674;28;20040;-75
2023/06/20 04:23:53;;;;;;;14.45;8.98;;;17.90;99.90;;;;;;5061184;28;20043;-74
2023/06/20 04:26:19;;;;;;;14.30;9.98;;;18.00;99.90;;;;;;5066138;28;20068;-74
2023/06/20 04:28:45;;;;;;;13.43;8.85;;;18.00;99.90;;;;;;5064670;28;20460;-75
2023/06/20 04:31:11;;;;;;;12.38;9.55;;;18.10;99.90;;;;;;5062850;28;20305;-75
2023/06/20 04:33:43;;;;;;;16.95;10.07;;;18.10;99.90;;;;;;5048066;28;20037;-75
2023/06/20 04:36:12;;;;;;;13.00;9.45;;;18.10;99.90;;;;;;5066615;28;20488;-75
2023/06/20 04:38:42;;;;;;;14.85;9.48;;;18.10;99.90;;;;;;5051389;28;20032;-75
2023/06/20 04:41:08;;;;;;;12.88;9.02;;;18.10;99.90;;;;;;5067487;28;20044;-75
2023/06/20 04:43:33;;;;;;;13.20;9.57;;;18.10;99.90;;;;;;5062533;28;20063;-80
2023/06/20 04:45:59;;;;;;;15.32;10.18;;;18.10;99.90;;;;;;5043984;28;20141;-80
2023/06/20 04:48:38;;;;;;;13.02;9.45;;;18.20;99.90;;;;;;5059238;28;20132;-78
2023/06/20 04:51:07;;;;;;;14.50;9.60;;;18.20;99.90;;;;;;5044560;28;20051;-79
2023/06/20 04:53:36;;;;;;;15.60;9.63;;;18.20;99.90;;;;;;5060171;28;20040;-79
2023/06/20 04:56:02;;;;;;;13.35;9.60;;;18.20;99.90;;;;;;5046860;28;20158;-77
2023/06/20 04:58:28;;;;;;;12.82;9.80;;;18.20;99.90;;;;;;5063589;28;20067;-78
2023/06/20 05:00:57;;;;;;;14.73;9.80;;;18.20;99.90;;;;;;5065119;28;20052;-79
2023/06/20 05:03:23;;;;;;;12.85;10.00;;;18.20;99.90;;;;;;5060292;28;20462;-79
2023/06/20 05:05:49;;;;;;;15.68;10.25;;;18.20;99.90;;;;;;5048025;28;20044;-79
2023/06/20 05:08:15;;;;;;;12.90;9.50;;;18.30;99.90;;;;;;5046963;28;20050;-78
2023/06/20 05:10:40;;;;;;;14.63;10.55;;;18.20;99.90;;;;;;5067158;28;20533;-79
2023/06/20 05:13:06;;;;;;;14.18;10.07;;;18.30;99.90;;;;;;5061052;28;20126;-78
2023/06/20 05:15:32;;;;;;;13.35;10.13;;;18.30;99.90;;;;;;5041911;28;20051;-80
2023/06/20 05:17:57;;;;;;;13.02;9.98;;;18.30;99.90;;;;;;5046962;28;20044;-80
2023/06/20 05:20:23;;;;;;;12.73;9.60;;;18.30;99.90;;;;;;5059692;28;20044;-79
2023/06/20 05:22:49;;;;;;;12.10;9.60;;;18.30;99.90;;;;;;5045046;28;20041;-78
2023/06/20 05:25:15;;;;;;;12.13;10.27;;;18.40;99.90;;;;;;5048905;28;20036;-79
2023/06/20 05:27:41;;;;;;;16.42;10.30;;;18.40;99.90;;;;;;5047779;28;20067;-77
2023/06/20 05:30:08;;;;;;;15.55;9.77;;;18.40;99.90;;;;;;5066494;28;20071;-78
2023/06/20 05:32:34;;;;;;;15.50;10.85;;;18.50;99.90;;;;;;5045646;28;20040;-80
2023/06/20 05:35:00;;;;;;;15.27;10.23;;;18.50;99.90;;;;;;5043569;28;20044;-79
2023/06/20 05:37:28;;;;;;;17.90;11.27;;;18.50;99.90;;;;;;5064061;28;20051;-78
2023/06/20 05:39:53;;;;;;;13.05;9.82;;;18.50;99.90;;;;;;5047582;28;20049;-78
2023/06/20 05:42:19;;;;;;;13.43;9.93;;;18.60;99.90;;;;;;5066589;28;20052;-78
2023/06/20 05:44:44;;;;;;;12.43;9.40;;;18.60;99.90;;;;;;5068973;28;20044;-78
2023/06/20 05:47:17;;;;;;;13.57;9.65;;;18.60;99.90;;;;;;5065120;28;20174;-76
2023/06/20 05:49:47;;;;;;;15.63;10.05;;;18.60;99.90;;;;;;5066258;28;20112;-77
2023/06/20 05:52:13;;;;;;;15.20;10.02;;;18.70;99.90;;;;;;5059429;28;20056;-75
2023/06/20 05:54:38;;;;;;;13.98;10.10;;;18.70;99.90;;;;;;5069507;28;20526;-75
2023/06/20 05:57:07;;;;;;;14.00;9.80;;;18.70;99.90;;;;;;5048383;28;20124;-75
2023/06/20 05:59:33;;;;;;;13.82;10.80;;;18.70;99.90;;;;;;5050817;28;20119;-74
2023/06/20 06:01:58;;;;;;;15.13;11.13;;;18.70;99.90;;;;;;5068025;28;20547;-75
2023/06/20 06:04:25;;;;;;;18.48;11.00;;;18.70;99.90;;;;;;5068708;28;20415;-75
2023/06/20 06:06:51;;;;;;;15.13;10.45;;;18.70;99.90;;;;;;5048295;28;20040;-74
2023/06/20 06:09:17;;;;;;;15.85;10.40;;;18.70;99.90;;;;;;5049519;28;20047;-74
2023/06/20 06:11:43;;;;;;;13.88;10.55;;;18.70;99.90;;;;;;5067218;28;20333;-76
2023/06/20 06:14:09;;;;;;;16.10;11.73;;;18.70;99.90;;;;;;5066589;28;20514;-75
2023/06/20 06:16:35;;;;;;;14.50;10.32;;;18.70;99.90;;;;;;5065865;28;20068;-75
2023/06/20 06:19:00;;;;;;;13.40;10.85;;;18.70;99.90;;;;;;5052116;28;20041;-75
2023/06/20 06:21:26;;;;;;;15.00;10.80;;;18.80;99.90;;;;;;5027368;28;20075;-76
2023/06/20 06:23:53;;;;;;;17.77;10.52;;;18.80;99.90;;;;;;5053843;28;20036;-76
2023/06/20 06:26:18;;;;;;;15.55;10.50;;;18.90;99.90;;;;;;5089332;28;20025;-75
2023/06/20 06:28:44;;;;;;;12.85;10.75;;;18.90;99.90;;;;;;5079042;28;20097;-76
2023/06/20 06:31:13;;;;;;;14.40;10.68;;;19.00;99.90;;;;;;5030213;28;20055;-75
2023/06/20 06:33:40;;;;;;;17.25;11.07;;;19.00;99.90;;;;;;5065761;28;20328;-76
2023/06/20 06:36:06;;;;;;;12.48;9.60;;;19.10;99.90;;;;;;5063271;28;20040;-75
2023/06/20 06:38:32;;;;;;;19.58;10.98;;;19.10;99.90;;;;;;5067642;28;20033;-76
2023/06/20 06:40:59;;;;;;;15.60;10.50;;;19.20;99.90;;;;;;5048650;28;20500;-76
2023/06/20 06:43:25;;;;;;;13.25;10.07;;;19.20;99.90;;;;;;5049030;28;20045;-78
2023/06/20 06:45:52;;;;;;;14.13;10.77;;;19.30;99.90;;;;;;5049714;28;20045;-78
2023/06/20 06:48:17;;;;;;;15.88;10.90;;;19.40;99.90;;;;;;5040593;28;20487;-78
2023/06/20 06:50:46;;;;;;;12.95;10.20;;;19.40;99.90;;;;;;5064709;28;20040;-78
2023/06/20 06:53:11;;;;;;;15.93;11.07;;;19.60;99.90;;;;;;5061256;28;20178;-78
2023/06/20 06:55:37;;;;;;;16.42;11.43;;;19.70;99.90;;;;;;5066593;28;20127;-78
2023/06/20 06:58:03;;;;;;;14.27;10.80;;;19.80;99.90;;;;;;5061128;28;20040;-76
2023/06/20 07:00:29;;;;;;;12.82;10.18;;;19.90;99.90;;;;;;5065744;28;20056;-77
2023/06/20 07:02:55;;;;;;;17.13;10.50;;;20.00;99.90;;;;;;5026914;28;20040;-78
2023/06/20 07:05:21;;;;;;;13.15;10.00;;;20.00;99.90;;;;;;5043176;28;20044;-78
2023/06/20 07:07:46;;;;;;;12.27;10.63;;;20.10;99.90;;;;;;5047646;28;20048;-77
2023/06/20 07:10:12;;;;;;;13.60;10.65;;;20.10;99.90;;;;;;5048564;28;20040;-77
2023/06/20 07:12:38;;;;;;;13.68;10.93;;;20.20;99.90;;;;;;5063719;28;20506;-78
2023/06/20 07:15:04;;;;;;;13.63;10.85;;;20.30;99.90;;;;;;5048246;28;20048;-77
2023/06/20 07:17:29;;;;;;;13.40;11.60;;;20.30;99.90;;;;;;5050172;28;20480;-77
2023/06/20 07:19:55;;;;;;;16.02;12.00;;;20.40;99.90;;;;;;5046363;28;20029;-77
2023/06/20 07:22:21;;;;;;;15.75;10.93;;;20.50;99.90;;;;;;5059643;28;20128;-76
2023/06/20 07:24:47;;;;;;;16.20;10.95;;;20.50;99.90;;;;;;5067091;28;20393;-75
2023/06/20 07:27:12;;;;;;;13.98;11.07;;;20.60;99.90;;;;;;5045827;28;20514;-77
2023/06/20 07:29:38;;;;;;;18.80;11.95;;;20.70;99.90;;;;;;5063928;28;20095;-77
2023/06/20 07:32:04;;;;;;;13.10;11.48;;;20.80;99.90;;;;;;5049272;28;20408;-75
2023/06/20 07:34:30;;;;;;;15.15;12.43;;;20.90;99.90;;;;;;5049639;28;20119;-76
2023/06/20 07:36:56;;;;;;;17.20;12.77;;;21.00;99.90;;;;;;5048965;28;20729;-77
2023/06/20 07:39:22;;;;;;;13.90;12.48;;;21.10;99.90;;;;;;5048023;28;20097;-76
2023/06/20 07:41:47;;;;;;;15.10;13.50;;;21.10;99.90;;;;;;5064598;28;20044;-77
2023/06/20 07:44:13;;;;;;;15.85;12.23;;;21.20;99.90;;;;;;5064623;28;20071;-77
2023/06/20 07:46:39;;;;;;;16.38;12.40;;;21.30;99.90;;;;;;5050358;28;20189;-76
2023/06/20 07:49:06;;;;;;;17.58;12.68;;;21.30;99.90;;;;;;5061924;28;20041;-77
2023/06/20 07:51:33;;;;;;;19.40;12.95;;;21.40;99.90;;;;;;5043587;28;20052;-78
2023/06/20 07:53:59;;;;;;;14.25;12.32;;;21.50;99.90;;;;;;5050612;28;20040;-78
2023/06/20 07:56:26;;;;;;;16.33;12.57;;;21.60;99.90;;;;;;5049039;28;20103;-78
2023/06/20 07:58:51;;;;;;;14.80;12.35;;;21.70;99.90;;;;;;5065610;28;20040;-77
2023/06/20 08:01:18;;;;;;;17.75;11.88;;;21.70;99.90;;;;;;5038221;28;20540;-77
2023/06/20 08:03:43;;;;;;;17.00;11.88;;;21.80;99.90;;;;;;5064997;28;20041;-78
2023/06/20 08:06:10;;;;;;;12.88;11.30;;;21.90;99.90;;;;;;5066740;28;20033;-78
2023/06/20 08:08:36;;;;;;;15.60;11.85;;;22.00;99.90;;;;;;5068185;28;20048;-78
2023/06/20 08:11:02;;;;;;;13.80;11.63;;;22.10;99.90;;;;;;5063787;28;20040;-76
2023/06/20 08:13:27;;;;;;;15.75;12.80;;;22.20;99.90;;;;;;5058231;28;20052;-78
2023/06/20 08:15:53;;;;;;;14.75;11.77;;;22.30;99.90;;;;;;5065616;28;20037;-78
2023/06/20 08:18:18;;;;;;;14.80;11.95;;;22.40;99.90;;;;;;5066660;28;20047;-78
2023/06/20 08:20:45;;;;;;;13.50;12.07;;;22.40;99.90;;;;;;5032246;28;20578;-78
2023/06/20 08:23:11;;;;;;;14.80;12.43;;;22.50;99.90;;;;;;5064224;28;20059;-77
2023/06/20 08:25:36;;;;;;;14.18;11.75;;;22.60;99.90;;;;;;5064351;28;20776;-78
2023/06/20 08:28:02;;;;;;;13.65;11.40;;;22.60;99.90;;;;;;5063037;28;20120;-77
2023/06/20 08:30:28;;;;;;;14.20;12.25;;;22.70;99.90;;;;;;5043047;28;20542;-78
2023/06/20 08:32:53;;;;;;;13.48;11.48;;;22.90;99.90;;;;;;5064544;28;20386;-79
2023/06/20 08:35:19;;;;;;;15.07;11.15;;;22.90;99.90;;;;;;5046449;28;20086;-78
2023/06/20 08:37:44;;;;;;;14.88;11.40;;;22.90;99.90;;;;;;5063797;28;20450;-79
2023/06/20 08:40:12;;;;;;;14.82;10.98;;;22.80;99.90;;;;;;5048140;28;20131;-78
2023/06/20 08:42:40;;;;;;;12.52;10.70;;;22.70;99.90;;;;;;5064154;28;20089;-79
2023/06/20 08:45:07;;;;;;;12.35;11.10;;;22.70;99.90;;;;;;5047484;28;20044;-79
2023/06/20 08:47:33;;;;;;;15.55;11.43;;;22.80;99.90;;;;;;5047627;28;20040;-78
2023/06/20 08:49:58;;;;;;;12.95;10.68;;;22.90;99.90;;;;;;5047781;28;20048;-79
2023/06/20 08:52:29;;;;;;;13.38;11.27;;;22.90;99.90;;;;;;5059061;28;20040;-79
2023/06/20 08:54:55;;;;;;;12.27;10.98;;;23.00;99.90;;;;;;5046480;28;20040;-78
2023/06/20 08:57:21;;;;;;;12.68;11.30;;;23.10;99.90;;;;;;5066789;28;20045;-78
2023/06/20 08:59:47;;;;;;;12.25;10.60;;;23.30;99.90;;;;;;5059656;28;20037;-79
2023/06/20 09:02:13;;;;;;;13.65;11.82;;;23.30;99.90;;;;;;5032369;28;20075;-79
2023/06/20 09:04:38;;;;;;;15.50;11.27;;;23.50;99.90;;;;;;5056859;28;20458;-78
2023/06/20 09:07:17;;;;;;;15.02;11.48;;;23.60;99.90;;;;;;5049094;28;20044;-78
2023/06/20 09:09:44;;;;;;;13.20;11.30;;;23.70;99.90;;;;;;5060785;28;20072;-77
2023/06/20 09:12:09;;;;;;;13.38;11.07;;;23.90;99.90;;;;;;5069902;28;20067;-78
2023/06/20 09:14:35;;;;;;;12.48;11.18;;;24.00;99.90;;;;;;5063478;28;20610;-78
2023/06/20 09:17:01;;;;;;;13.23;10.75;;;24.10;99.90;;;;;;5065982;28;20513;-76
2023/06/20 09:19:27;;;;;;;12.07;10.55;;;24.10;99.90;;;;;;5046063;28;20613;-78
2023/06/20 09:22:03;;;;;;;20.13;11.15;;;24.10;99.90;;;;;;5030848;28;20064;-79
2023/06/20 09:24:28;;;;;;;12.93;11.52;;;24.20;99.90;;;;;;5066846;28;20040;-79
2023/06/20 09:26:54;;;;;;;13.90;11.02;;;24.20;99.90;;;;;;5069177;28;20045;-78
2023/06/20 09:29:19;;;;;;;16.00;9.68;;;24.30;99.90;;;;;;5063497;28;20043;-79
2023/06/20 09:31:49;;;;;;;15.32;11.20;;;24.30;99.90;;;;;;5033106;28;20444;-78
2023/06/20 09:34:19;;;;;;;15.65;10.25;;;24.50;99.90;;;;;;5048108;28;20040;-79
2023/06/20 09:36:47;;;;;;;11.38;9.85;;;24.50;99.90;;;;;;5033455;28;20037;-81
2023/06/20 09:39:20;;;;;;;12.65;10.50;;;24.70;99.90;;;;;;5062625;28;20051;-79
2023/06/20 09:41:52;;;;;;;12.45;10.65;;;24.80;99.90;;;;;;5061888;28;20120;-77
2023/06/20 09:44:19;;;;;;;13.98;10.70;;;24.80;99.90;;;;;;5068812;28;20045;-78
2023/06/20 09:46:46;;;;;;;14.50;11.77;;;24.80;99.90;;;;;;5067144;28;20052;-77
2023/06/20 09:49:14;;;;;;;14.77;10.93;;;24.90;99.90;;;;;;5068081;28;20564;-78
2023/06/20 09:51:52;;;;;;;12.18;10.25;;;25.20;99.90;;;;;;5046606;28;20052;-78
2023/06/20 09:54:31;;;;;;;14.63;10.57;;;25.30;99.90;;;;;;5043579;28;20071;-78
2023/06/20 09:57:03;;;;;;;13.38;11.40;;;25.60;99.90;;;;;;5065152;28;20055;-78
2023/06/20 09:59:31;;;;;;;14.15;12.07;;;25.90;99.90;;;;;;5066840;28;20099;-77
2023/06/20 10:01:59;;;;;;;13.90;11.07;;;25.90;99.90;;;;;;5067668;28;20128;-77
2023/06/20 10:04:26;;;;;;;12.38;10.68;;;26.00;99.90;;;;;;5069912;28;20052;-78
2023/06/20 10:06:55;;;;;;;12.13;10.88;;;26.10;99.90;;;;;;5067646;28;20089;-79
2023/06/20 10:09:21;;;;;;;11.52;10.27;;;26.30;99.90;;;;;;5048420;28;20040;-79
2023/06/20 10:11:48;;;;;;;13.88;11.10;;;26.40;99.90;;;;;;5051685;28;20064;-78
2023/06/20 10:14:14;;;;;;;11.88;10.63;;;26.30;99.90;;;;;;5031907;28;20066;-77
2023/06/20 10:16:50;;;;;;;12.57;11.23;;;26.30;99.90;;;;;;5050032;28;20051;-79
2023/06/20 10:19:17;;;;;;;11.77;10.57;;;26.30;99.90;;;;;;5061740;28;20041;-78
2023/06/20 10:21:59;;;;;;;12.80;9.90;;;26.40;99.90;;;;;;5066867;28;20587;-78
2023/06/20 10:24:27;;;;;;;9.57;7.97;;;26.40;99.90;;;;;;5065057;28;20071;-76
2023/06/20 10:26:54;;;;;;;14.02;10.30;;;26.60;99.90;;;;;;5055203;28;20036;-78
2023/06/20 10:29:22;;;;;;;11.43;10.10;;;26.60;99.90;;;;;;5036644;28;20895;-77
2023/06/20 10:32:07;;;;;;;11.70;9.63;;;26.60;99.90;;;;;;5052068;28;20037;-77
2023/06/20 10:34:40;;;;;;;10.57;9.48;;;26.60;99.90;;;;;;5043663;28;20047;-78
2023/06/20 10:37:09;;;;;;;;;;;26.60;99.90;;;;;;5058201;28;20048;-77
2023/06/20 10:39:35;;;;;;;12.07;9.63;;;26.60;99.90;;;;;;5058650;28;19971;-77
2023/06/20 10:42:06;;;;;;;12.23;9.98;;;26.60;99.90;;;;;;5046171;28;20072;-78
2023/06/20 10:44:32;;;;;;;13.07;9.30;;;26.70;99.90;;;;;;5030435;28;20060;-78
2023/06/20 10:46:57;;;;;;;13.70;9.85;;;26.80;99.90;;;;;;5046702;28;20048;-78
2023/06/20 10:49:23;;;;;;;10.85;9.63;;;26.90;99.90;;;;;;5063986;28;20056;-78
2023/06/20 10:51:50;;;;;;;12.23;9.43;;;26.90;99.90;;;;;;5049068;28;20051;-77
2023/06/20 10:54:17;;;;;;;12.38;9.10;;;26.90;99.90;;;;;;5044954;28;20044;-76
2023/06/20 10:56:43;;;;;;;11.85;9.23;;;27.00;99.90;;;;;;5048432;28;20047;-77
2023/06/20 10:59:15;;;;;;;11.27;9.27;;;26.90;99.90;;;;;;5048963;28;20044;-76
2023/06/20 11:01:41;;;;;;;11.77;8.98;;;26.90;99.90;;;;;;5042334;28;20048;-77
2023/06/20 11:04:09;;;;;;;11.00;9.30;;;26.90;99.90;;;;;;5044404;28;20068;-77
2023/06/20 11:06:35;;;;;;;9.73;7.75;;;27.00;99.90;;;;;;5062882;28;20049;-76
2023/06/20 11:09:01;;;;;;;12.38;8.90;;;27.20;99.90;;;;;;5048865;28;20047;-76
2023/06/20 11:11:36;;;;;;;14.00;9.00;;;27.30;99.90;;;;;;5067590;28;20070;-76
2023/06/20 11:14:12;;;;;;;10.75;7.50;;;27.40;99.90;;;;;;5045215;28;20048;-75
2023/06/20 11:16:40;;;;;;;9.52;8.52;;;27.60;99.90;;;;;;5066481;28;20044;-77
2023/06/20 11:19:06;;;;;;;8.90;8.00;;;27.80;99.90;;;;;;5048628;28;20067;-75
2023/06/20 11:21:32;;;;;;;8.55;7.28;;;27.70;99.90;;;;;;5065545;28;20487;-79
2023/06/20 11:24:03;;;;;;;7.80;7.00;;;27.80;99.90;;;;;;5064952;28;20040;-78
2023/06/20 11:26:33;;;;;;;8.98;7.30;;;27.90;99.90;;;;;;5046598;28;20106;-77
2023/06/20 11:28:59;;;;;;;10.10;7.80;;;27.80;99.90;;;;;;5043261;28;20055;-78
2023/06/20 11:31:25;;;;;;;7.05;6.35;;;27.80;99.90;;;;;;5066485;28;20061;-77
2023/06/20 11:34:11;;;;;;;6.28;5.65;;;27.80;99.90;;;;;;5048057;28;20048;-77
2023/06/20 11:36:39;;;;;;;6.63;5.85;;;28.10;99.90;;;;;;5027879;28;20044;-76
2023/06/20 11:39:13;;;;;;;6.53;5.30;;;28.20;99.90;;;;;;5042997;28;20056;-77
2023/06/20 11:41:39;;;;;;;12.57;5.45;;;28.30;99.90;;;;;;5034000;28;20049;-77
2023/06/20 11:44:20;;;;;;;7.40;5.38;;;28.50;99.90;;;;;;5045542;28;20506;-78
2023/06/20 11:46:45;;;;;;;6.80;5.13;;;28.60;99.90;;;;;;5047001;28;20047;-77
2023/06/20 11:49:11;;;;;;;6.05;5.28;;;28.60;99.90;;;;;;5046567;28;20415;-78
2023/06/20 11:51:38;;;;;;;7.22;5.47;;;28.50;99.90;;;;;;5049478;28;20057;-77
2023/06/20 11:54:12;;;;;;;8.07;5.07;;;28.50;99.90;;;;;;5062190;28;20051;-77
2023/06/20 11:56:38;;;;;;;7.78;4.82;;;28.50;99.90;;;;;;5046401;28;20037;-81
2023/06/20 11:59:04;;;;;;;6.07;4.50;;;28.60;99.90;;;;;;5031599;28;20048;-81
2023/06/20 12:01:32;;;;;;;6.13;4.15;;;28.70;99.90;;;;;;5068429;28;20047;-82
2023/06/20 12:04:06;;;;;;;6.30;4.63;;;28.70;99.90;;;;;;5046865;28;20044;-79
2023/06/20 12:06:34;;;;;;;5.95;4.70;;;28.70;99.90;;;;;;5030394;28;20036;-80
2023/06/20 12:09:03;;;;;;;6.22;5.32;;;28.80;99.90;;;;;;5063918;28;20068;-82
2023/06/20 12:11:30;;;;;;;7.50;5.30;;;28.80;99.90;;;;;;5044351;28;20040;-81
2023/06/20 12:13:56;;;;;;;6.35;5.07;;;28.70;99.90;;;;;;5062652;28;20040;-84
2023/06/20 12:16:23;;;;;;;9.55;5.50;;;28.60;99.90;;;;;;5048372;28;20102;-80
2023/06/20 12:18:51;;;;;;;7.45;5.38;;;28.60;99.90;;;;;;5066664;28;20127;-82
2023/06/20 12:21:17;;;;;;;6.25;5.18;;;28.50;99.90;;;;;;5046746;28;20488;-82
2023/06/20 12:23:43;;;;;;;7.07;5.32;;;28.50;99.90;;;;;;5064136;28;20040;-83
2023/06/20 12:26:09;;;;;;;7.18;5.80;;;28.60;99.90;;;;;;5044089;28;20488;-81
2023/06/20 12:28:39;;;;;;;8.07;5.60;;;28.60;99.90;;;;;;5042071;28;20074;-79
2023/06/20 12:31:04;;;;;;;9.32;6.30;;;28.70;99.90;;;;;;5045842;28;20056;-79
2023/06/20 12:33:30;;;;;;;6.28;5.65;;;28.70;99.90;;;;;;5062179;28;20047;-80